Time;durP1;ratioP1;P1;durP2;ratioP2;P2;SDS_P1;SDS_P2;PMS_P1;PMS_P2;Temp;Humidity;BMP_temperature;BMP_pressure;BME280_temperature;BME280_humidity;BME280_pressure;Samples;Min_cycle;Max_cycle;Signal;HPM_P1;HPM_P2
2021/07/19 11:58:01;;;;;;;22.30;14.60;;;24.30;46.80;;;;;;5121215;27;21065;-91
2021/07/19 12:00:39;;;;;;;15.50;13.83;;;26.00;48.10;;;;;;5099221;28;20416;-92
2021/07/19 12:03:07;;;;;;;17.90;14.23;;;24.30;47.40;;;;;;5076879;28;20428;-89
2021/07/19 12:05:34;;;;;;;14.17;12.93;;;25.20;48.10;;;;;;5077087;28;20416;-92
2021/07/19 12:08:08;;;;;;;15.13;13.60;;;24.00;48.10;;;;;;5075016;28;20412;-92
2021/07/19 12:10:39;;;;;;;15.90;13.82;;;24.00;47.30;;;;;;4740836;28;10000404;-94
2021/07/19 12:13:16;;;;;;;15.50;14.00;;;22.70;47.20;;;;;;5091903;28;20173;-93
2021/07/19 12:15:58;;;;;;;16.07;12.97;;;26.10;50.90;;;;;;4757563;28;9999800;-94
2021/07/19 12:18:32;;;;;;;15.07;13.57;;;25.40;49.30;;;;;;5078246;28;20181;-92
2021/07/19 12:21:01;;;;;;;15.60;13.97;;;25.50;49.80;;;;;;5073756;28;20781;-92
2021/07/19 12:23:47;;;;;;;12.70;11.40;;;25.30;48.90;;;;;;5091100;28;20540;-92
2021/07/19 12:26:22;;;;;;;13.60;12.17;;;24.60;47.70;;;;;;5094373;28;20785;-93
2021/07/19 12:29:09;;;;;;;15.03;12.27;;;27.20;48.50;;;;;;5094547;28;20449;-93
2021/07/19 12:31:36;;;;;;;13.30;12.10;;;25.20;46.60;;;;;;5090805;28;20432;-92
2021/07/19 12:34:13;;;;;;;13.37;12.07;;;25.80;45.90;;;;;;5073777;28;20430;-93
2021/07/19 12:36:40;;;;;;;13.93;12.73;;;26.30;45.60;;;;;;5091945;28;20468;-92
2021/07/19 12:39:12;;;;;;;12.43;11.40;;;27.00;44.90;;;;;;5074884;28;20424;-92
2021/07/19 12:41:39;;;;;;;13.83;12.20;;;27.00;44.00;;;;;;5078198;28;20420;-92
2021/07/19 12:44:07;;;;;;;12.50;11.40;;;27.60;43.00;;;;;;5091519;28;20981;-90
2021/07/19 12:46:40;;;;;;;13.17;11.73;;;27.70;42.90;;;;;;5098801;28;20498;-93
2021/07/19 12:49:07;;;;;;;22.60;20.20;;;29.10;43.20;;;;;;5113135;28;20399;-92
2021/07/19 12:51:33;;;;;;;14.43;12.27;;;29.10;43.80;;;;;;5093713;28;20419;-92
2021/07/19 12:54:09;;;;;;;16.37;14.87;;;27.50;43.50;;;;;;5111394;28;20901;-91
2021/07/19 12:56:36;;;;;;;13.37;12.17;;;27.90;44.80;;;;;;5112314;28;21006;-92
2021/07/19 12:59:04;;;;;;;14.40;12.40;;;27.00;44.90;;;;;;5111616;28;20499;-91
2021/07/19 13:01:42;;;;;;;27.60;23.90;;;26.50;44.90;;;;;;5111208;28;20399;-90
2021/07/19 13:04:16;;;;;;;15.57;14.17;;;27.00;45.80;;;;;;5093742;28;20475;-92
2021/07/19 13:06:44;;;;;;;14.33;13.00;;;26.70;45.80;;;;;;4734790;28;9999713;-91
2021/07/19 13:09:18;;;;;;;14.40;12.90;;;24.30;45.90;;;;;;5077334;28;20503;-91
2021/07/19 13:11:44;;;;;;;14.63;13.30;;;24.50;45.70;;;;;;5075248;28;20453;-92
2021/07/19 13:14:16;;;;;;;14.00;12.57;;;25.50;47.00;;;;;;5056471;28;20467;-92
2021/07/19 13:16:54;;;;;;;14.50;13.03;;;25.10;46.60;;;;;;5074957;28;20759;-92
2021/07/19 13:19:29;;;;;;;14.13;12.70;;;25.60;46.80;;;;;;5057358;28;20439;-90
2021/07/19 13:21:56;;;;;;;35.00;14.00;;;25.80;46.50;;;;;;5056637;28;20424;-91
2021/07/19 13:24:22;;;;;;;13.93;12.63;;;25.40;47.20;;;;;;5074417;28;20466;-92
2021/07/19 13:27:13;;;;;;;13.93;12.37;;;25.30;46.90;;;;;;5065882;28;20527;-92
2021/07/19 13:30:08;;;;;;;13.03;11.83;;;25.50;45.90;;;;;;5066767;28;20423;-91
2021/07/19 13:32:33;;;;;;;14.40;12.40;;;25.40;45.30;;;;;;5064196;28;20433;-91
2021/07/19 13:35:04;;;;;;;14.90;13.17;;;26.40;47.50;;;;;;5076317;28;20399;-92
2021/07/19 13:37:30;;;;;;;14.23;12.83;;;25.50;45.20;;;;;;5099467;28;20161;-90
2021/07/19 13:40:16;;;;;;;15.00;13.13;;;27.80;46.80;;;;;;4728139;28;9999655;-91
2021/07/19 13:42:45;;;;;;;13.27;12.03;;;26.90;45.80;;;;;;5083871;28;20170;-91
2021/07/19 13:45:14;;;;;;;13.90;12.37;;;25.90;46.20;;;;;;5082892;28;20413;-92
2021/07/19 13:47:40;;;;;;;14.60;12.50;;;27.30;46.90;;;;;;5087253;28;20555;-91
2021/07/19 13:50:08;;;;;;;21.23;13.93;;;26.20;46.40;;;;;;5106412;28;20404;-91
2021/07/19 13:52:33;;;;;;;13.53;12.30;;;26.10;45.30;;;;;;5076794;28;20423;-91
2021/07/19 13:54:59;;;;;;;18.57;13.20;;;26.20;46.30;;;;;;5092005;28;20412;-90
2021/07/19 13:57:25;;;;;;;14.57;13.00;;;27.90;47.80;;;;;;5104072;28;20217;-91
2021/07/19 13:59:51;;;;;;;17.63;12.20;;;26.70;46.00;;;;;;5084836;28;20424;-92
2021/07/19 14:02:17;;;;;;;12.90;11.80;;;29.50;48.10;;;;;;5115506;28;20162;-89
2021/07/19 14:04:42;;;;;;;11.43;10.53;;;26.80;45.80;;;;;;5097315;28;20445;-92
2021/07/19 14:07:09;;;;;;;13.90;12.67;;;28.70;46.60;;;;;;5090260;28;20213;-89
2021/07/19 14:09:35;;;;;;;12.93;11.83;;;28.20;45.00;;;;;;5089410;28;20166;-89
2021/07/19 14:12:01;;;;;;;16.97;15.47;;;28.40;43.50;;;;;;5092850;28;20515;-88
2021/07/19 14:14:27;;;;;;;13.17;11.83;;;29.60;45.80;;;;;;5086714;28;20401;-91
2021/07/19 14:16:54;;;;;;;12.90;11.80;;;29.40;45.60;;;;;;5086545;28;20178;-91
2021/07/19 14:19:23;;;;;;;12.53;11.23;;;28.60;44.80;;;;;;5048352;28;20185;-88
2021/07/19 14:21:55;;;;;;;13.80;12.50;;;28.40;43.60;;;;;;5064737;28;20429;-89
2021/07/19 14:24:28;;;;;;;11.90;11.00;;;29.20;44.20;;;;;;5051697;28;20916;-91
2021/07/19 14:26:55;;;;;;;13.27;12.07;;;27.00;44.90;;;;;;5062844;28;20472;-89
2021/07/19 14:29:24;;;;;;;11.80;10.80;;;27.60;45.10;;;;;;5082046;28;20508;-90
2021/07/19 14:31:55;;;;;;;13.53;12.23;;;26.20;45.50;;;;;;5062759;28;20431;-88
2021/07/19 14:34:23;;;;;;;13.33;10.83;;;26.80;45.40;;;;;;5078129;28;20417;-86
2021/07/19 14:36:52;;;;;;;13.90;12.40;;;26.80;45.70;;;;;;5077906;28;20409;-88
2021/07/19 14:39:18;;;;;;;13.18;12.07;;;26.60;45.80;;;;;;4742281;28;9999808;-89
2021/07/19 14:41:43;;;;;;;13.40;12.20;;;26.30;46.30;;;;;;5098069;28;20520;-89
2021/07/19 14:44:09;;;;;;;13.80;12.40;;;25.40;47.00;;;;;;5098527;28;20412;-90
2021/07/19 14:46:35;;;;;;;13.13;11.60;;;23.80;46.00;;;;;;5105659;28;20194;-88
2021/07/19 14:49:00;;;;;;;12.83;11.53;;;27.30;48.70;;;;;;5105086;28;20178;-88
2021/07/19 14:51:26;;;;;;;14.90;13.40;;;26.10;47.20;;;;;;5114149;28;20183;-90
2021/07/19 14:53:52;;;;;;;14.57;13.10;;;25.60;47.40;;;;;;5109593;28;20195;-89
2021/07/19 14:56:18;;;;;;;13.97;12.67;;;26.20;47.50;;;;;;5100951;28;20243;-89
2021/07/19 14:58:44;;;;;;;13.90;12.43;;;26.10;45.80;;;;;;5100517;28;20177;-90
2021/07/19 15:01:14;;;;;;;15.20;13.80;;;25.70;48.00;;;;;;5099658;28;20438;-90
2021/07/19 15:03:40;;;;;;;13.20;12.10;;;27.10;47.80;;;;;;5104611;28;20180;-88
2021/07/19 15:06:13;;;;;;;14.67;13.37;;;26.20;46.20;;;;;;5107972;28;20488;-92
2021/07/19 15:08:52;;;;;;;13.60;12.30;;;28.00;48.00;;;;;;5106301;28;20412;-91
2021/07/19 15:11:19;;;;;;;14.70;13.20;;;25.00;44.50;;;;;;5105616;28;20458;-89
2021/07/19 15:13:50;;;;;;;14.70;13.23;;;26.60;47.10;;;;;;5087369;28;20416;-90
2021/07/19 15:16:16;;;;;;;19.90;13.67;;;26.60;45.90;;;;;;5088398;28;20428;-90
2021/07/19 15:18:43;;;;;;;15.10;13.70;;;26.30;46.30;;;;;;5099820;28;20470;-89
2021/07/19 15:21:11;;;;;;;13.37;12.27;;;26.50;46.10;;;;;;5126925;28;20203;-91
2021/07/19 15:23:36;;;;;;;14.50;12.97;;;27.00;47.00;;;;;;5107892;28;20423;-90
2021/07/19 15:26:05;;;;;;;13.63;12.23;;;26.00;48.30;;;;;;5103762;28;20491;-89
2021/07/19 15:28:34;;;;;;;13.07;11.93;;;25.90;49.90;;;;;;5106764;28;20211;-90
2021/07/19 15:31:00;;;;;;;16.13;12.30;;;23.20;45.70;;;;;;5089041;28;20513;-90
2021/07/19 15:33:26;;;;;;;14.43;13.03;;;27.30;47.20;;;;;;5105489;28;20426;-90
2021/07/19 15:36:08;;;;;;;13.93;12.03;;;25.50;47.30;;;;;;5086585;28;20436;-88
2021/07/19 15:38:34;;;;;;;15.83;12.20;;;25.60;47.10;;;;;;5088489;28;20194;-91
2021/07/19 15:40:59;;;;;;;14.73;13.23;;;28.10;50.30;;;;;;5106444;28;20419;-88
2021/07/19 15:46:17;;;;;;;20.07;12.60;;;26.10;47.00;;;;;;5110656;28;20204;-90
2021/07/19 15:48:46;;;;;;;14.50;12.20;;;29.60;47.90;;;;;;5156123;22;20493;-90
2021/07/19 15:51:17;;;;;;;13.47;12.13;;;26.10;46.40;;;;;;5073251;28;20420;-91
2021/07/19 15:53:46;;;;;;;13.83;12.53;;;26.40;47.80;;;;;;5050493;28;20434;-90
2021/07/19 15:56:14;;;;;;;13.10;11.90;;;25.80;45.60;;;;;;5069957;28;20425;-89
2021/07/19 15:58:40;;;;;;;15.33;13.07;;;26.30;46.30;;;;;;5049869;28;20422;-92
2021/07/19 16:01:05;;;;;;;12.97;11.93;;;27.30;49.20;;;;;;5030276;28;20426;-91
2021/07/19 16:03:31;;;;;;;13.33;11.93;;;24.40;47.80;;;;;;5154980;22;20558;-90
2021/07/19 16:05:57;;;;;;;13.27;11.97;;;24.40;47.20;;;;;;5071157;28;20195;-93
2021/07/19 16:08:22;;;;;;;13.30;12.10;;;26.50;47.40;;;;;;5090188;28;20166;-90
2021/07/19 16:10:49;;;;;;;11.83;10.83;;;27.40;48.00;;;;;;5089241;28;20181;-89
2021/07/19 16:13:15;;;;;;;13.03;11.80;;;27.50;49.10;;;;;;5089447;28;20198;-91
2021/07/19 16:15:41;;;;;;;14.63;12.43;;;25.60;49.80;;;;;;5088356;28;20421;-90
2021/07/19 16:18:17;;;;;;;13.20;11.90;;;24.80;48.30;;;;;;5057750;28;20162;-91
2021/07/19 16:21:24;;;;;;;15.77;11.07;;;25.00;49.10;;;;;;5071341;28;20420;-91
2021/07/19 16:23:50;;;;;;;12.87;11.63;;;26.90;46.60;;;;;;5071759;28;20431;-91
2021/07/19 16:26:19;;;;;;;13.43;12.20;;;25.30;48.20;;;;;;5089907;28;20453;-88
2021/07/19 16:28:49;;;;;;;14.83;13.30;;;24.80;49.40;;;;;;5091295;28;20162;-92
2021/07/19 16:31:15;;;;;;;13.90;12.50;;;24.60;47.00;;;;;;5088992;28;20455;-87
2021/07/19 16:33:40;;;;;;;14.27;12.37;;;25.80;49.60;;;;;;5073305;28;20480;-91
2021/07/19 16:36:29;;;;;;;14.40;13.00;;;25.80;49.00;;;;;;5089109;28;20421;-91
2021/07/19 16:39:22;;;;;;;14.60;11.80;;;30.10;52.00;;;;;;5090681;28;20174;-92
2021/07/19 16:41:51;;;;;;;14.47;13.17;;;24.50;49.30;;;;;;5090016;28;20462;-90
2021/07/19 16:44:20;;;;;;;13.87;12.37;;;25.90;51.30;;;;;;5076194;28;20423;-91
2021/07/19 16:46:55;;;;;;;16.33;12.00;;;25.70;50.70;;;;;;5092670;28;20472;-91
2021/07/19 16:49:23;;;;;;;13.87;12.37;;;24.40;50.20;;;;;;5090808;28;20420;-92
2021/07/19 16:51:49;;;;;;;14.67;13.10;;;24.30;52.20;;;;;;5091069;28;20421;-90
2021/07/19 16:54:15;;;;;;;15.57;14.07;;;24.80;49.30;;;;;;5079134;28;20996;-90
2021/07/19 16:56:41;;;;;;;16.33;13.40;;;26.30;49.60;;;;;;5078923;28;20416;-89
2021/07/19 16:59:07;;;;;;;15.70;13.03;;;26.70;51.90;;;;;;5079859;28;20423;-91
2021/07/19 17:01:55;;;;;;;12.73;11.53;;;25.40;52.60;;;;;;5090417;28;20170;-90
2021/07/19 17:04:20;;;;;;;14.30;12.90;;;24.00;47.30;;;;;;5082115;28;20230;-92
2021/07/19 17:06:51;;;;;;;14.77;13.23;;;24.70;49.90;;;;;;5081434;28;20496;-88
2021/07/19 17:09:17;;;;;;;15.67;13.07;;;26.90;50.10;;;;;;5084169;28;20215;-90
2021/07/19 17:11:42;;;;;;;14.43;13.13;;;23.50;50.00;;;;;;5084081;28;20436;-90
2021/07/19 17:14:09;;;;;;;14.23;12.43;;;26.90;51.50;;;;;;5085311;28;20174;-89
2021/07/19 17:16:35;;;;;;;13.60;12.27;;;24.20;47.20;;;;;;5077293;28;20187;-90
2021/07/19 17:19:00;;;;;;;13.63;12.33;;;24.10;50.30;;;;;;5099838;28;20420;-90
2021/07/19 17:21:26;;;;;;;13.10;11.80;;;27.40;52.70;;;;;;5075869;28;20194;-90
2021/07/19 17:24:29;;;;;;;14.33;13.03;;;23.90;49.90;;;;;;5087720;28;20178;-91
2021/07/19 17:27:02;;;;;;;13.83;12.57;;;26.80;50.60;;;;;;5093611;28;20469;-89
2021/07/19 17:29:28;;;;;;;17.00;13.57;;;24.10;53.10;;;;;;5074123;28;20903;-89
2021/07/19 17:31:57;;;;;;;17.93;14.40;;;25.30;51.30;;;;;;5092713;28;20413;-92
2021/07/19 17:34:33;;;;;;;19.70;13.50;;;23.70;48.90;;;;;;5075241;28;20162;-92
2021/07/19 17:38:00;;;;;;;;;;;;;;;;;;;;;
2021/07/19 17:40:55;;;;;;;15.57;14.00;;;22.00;49.80;;;;;;5057317;28;20457;-92
2021/07/19 17:43:44;;;;;;;14.63;13.17;;;24.40;55.70;;;;;;5057989;28;20447;-90
2021/07/19 17:46:54;;;;;;;13.90;12.63;;;23.20;49.60;;;;;;5075652;28;20453;-90
2021/07/19 17:49:48;;;;;;;14.27;12.97;;;25.20;51.70;;;;;;5045593;28;20440;-90
2021/07/19 17:53:05;;;;;;;;;;;;;;;;;;;;;
2021/07/19 17:55:57;;;;;;;18.90;13.70;;;22.70;50.10;;;;;;5072684;28;20405;-93
2021/07/19 18:03:56;;;;;;;15.07;12.47;;;22.50;50.40;;;;;;5301760;23;20520;-92
2021/07/19 18:06:23;;;;;;;14.67;13.10;;;24.80;53.90;;;;;;4992220;28;20461;-91
2021/07/19 18:08:51;;;;;;;16.73;12.67;;;26.50;54.90;;;;;;4950528;28;20465;-91
2021/07/19 18:11:17;;;;;;;13.60;12.30;;;22.10;53.40;;;;;;4934434;28;20462;-90
2021/07/19 18:13:43;;;;;;;15.03;12.77;;;25.10;55.90;;;;;;4952705;29;20422;-90
2021/07/19 18:16:09;;;;;;;15.43;12.77;;;23.40;53.60;;;;;;4936114;28;20187;-92
2021/07/19 18:18:36;;;;;;;13.83;12.47;;;25.20;54.40;;;;;;4951967;28;20426;-90
2021/07/19 18:21:02;;;;;;;14.23;12.83;;;22.70;54.50;;;;;;4951009;28;20426;-91
2021/07/19 18:23:30;;;;;;;16.73;14.93;;;25.10;54.70;;;;;;4948282;28;20622;-89
2021/07/19 18:31:06;;;;;;;15.47;13.20;;;23.80;53.80;;;;;;4961639;29;20193;-91
2021/07/19 18:33:32;;;;;;;15.80;14.30;;;22.40;56.20;;;;;;4962477;29;20419;-91
2021/07/19 18:36:00;;;;;;;14.73;12.47;;;22.00;52.60;;;;;;4947126;29;20229;-89
2021/07/19 18:38:26;;;;;;;14.70;13.13;;;22.50;53.60;;;;;;4961900;29;20679;-90
2021/07/19 18:40:52;;;;;;;14.70;12.80;;;24.60;57.20;;;;;;4947694;28;20426;-89
2021/07/19 18:43:22;;;;;;;15.93;12.27;;;26.10;56.40;;;;;;4967017;29;20422;-89
2021/07/19 18:45:53;;;;;;;14.10;12.73;;;24.40;55.10;;;;;;4949169;29;20422;-90
2021/07/19 18:48:21;;;;;;;14.47;12.97;;;24.40;54.40;;;;;;4947539;29;20418;-91
2021/07/19 18:50:48;;;;;;;16.40;14.10;;;22.30;52.80;;;;;;4931065;28;20921;-91
2021/07/19 18:53:15;;;;;;;14.73;13.33;;;20.20;53.90;;;;;;4944546;29;20410;-90
2021/07/19 18:55:41;;;;;;;14.67;13.00;;;23.40;55.10;;;;;;4944301;29;20435;-91
2021/07/19 18:58:11;;;;;;;14.73;13.20;;;23.40;56.50;;;;;;4960663;29;20505;-91
2021/07/19 19:00:39;;;;;;;15.47;12.53;;;22.40;53.50;;;;;;4963026;29;20419;-90
2021/07/19 19:03:05;;;;;;;14.90;12.70;;;24.20;58.90;;;;;;4963735;29;20465;-90
2021/07/19 19:05:32;;;;;;;15.23;13.70;;;20.20;56.70;;;;;;4945873;29;20427;-89
2021/07/19 19:08:00;;;;;;;15.33;13.83;;;22.00;57.50;;;;;;4610358;28;9999706;-90
2021/07/19 19:10:31;;;;;;;14.50;13.10;;;22.70;56.10;;;;;;4974279;28;20178;-91
2021/07/19 19:13:03;;;;;;;16.77;14.50;;;25.50;60.70;;;;;;4974313;28;20430;-91
2021/07/19 19:15:29;;;;;;;16.10;14.40;;;23.70;56.60;;;;;;4955938;28;20421;-89
2021/07/19 19:17:59;;;;;;;21.97;15.47;;;22.00;56.10;;;;;;4956898;28;20425;-89
2021/07/19 19:20:28;;;;;;;17.60;14.00;;;20.70;56.00;;;;;;4955998;28;20516;-90
2021/07/19 19:22:54;;;;;;;14.87;12.93;;;21.50;55.90;;;;;;4955621;28;20445;-90
2021/07/19 19:25:20;;;;;;;14.67;13.27;;;22.60;57.80;;;;;;4956755;28;20934;-89
2021/07/19 19:27:47;;;;;;;14.60;13.13;;;20.80;58.10;;;;;;4957576;28;20224;-89
2021/07/19 19:30:16;;;;;;;14.50;12.83;;;20.40;56.80;;;;;;4963685;28;20513;-90
2021/07/19 19:32:44;;;;;;;14.33;12.90;;;20.30;56.80;;;;;;4982200;28;20426;-92
2021/07/19 19:35:14;;;;;;;12.83;11.60;;;21.50;60.90;;;;;;4959278;28;20480;-90
2021/07/19 19:37:40;;;;;;;13.87;12.57;;;22.40;60.40;;;;;;4973764;28;20536;-89
2021/07/19 19:40:10;;;;;;;18.10;13.33;;;20.10;57.80;;;;;;4973758;28;20414;-91
2021/07/19 19:42:39;;;;;;;15.47;13.17;;;20.00;58.90;;;;;;4959936;28;20440;-90
2021/07/19 19:45:09;;;;;;;15.20;12.80;;;23.20;66.00;;;;;;4958199;28;20453;-91
2021/07/19 19:47:35;;;;;;;13.10;11.90;;;19.70;59.20;;;;;;4973815;28;20469;-89
2021/07/19 19:50:01;;;;;;;15.30;12.77;;;19.60;89.10;;;;;;4973950;28;20418;-90
2021/07/19 19:52:27;;;;;;;17.03;13.53;;;19.80;89.30;;;;;;4957347;28;20778;-89
2021/07/19 19:54:53;;;;;;;14.87;13.17;;;19.50;82.90;;;;;;4957473;28;20435;-88
2021/07/19 19:57:18;;;;;;;20.40;13.63;;;19.30;68.30;;;;;;4974271;28;20174;-88
2021/07/19 19:59:45;;;;;;;16.57;13.50;;;19.30;62.40;;;;;;4958713;28;20205;-88
2021/07/19 20:02:12;;;;;;;17.27;13.33;;;21.30;68.90;;;;;;4955956;28;20178;-89
2021/07/19 20:04:37;;;;;;;14.47;12.47;;;17.80;63.10;;;;;;4955710;28;20544;-89
2021/07/19 20:07:03;;;;;;;23.27;14.20;;;21.70;74.40;;;;;;4955072;28;20619;-90
2021/07/19 20:09:29;;;;;;;19.63;12.90;;;19.10;73.50;;;;;;4953975;28;20188;-90
2021/07/19 20:11:55;;;;;;;14.87;13.27;;;21.70;77.60;;;;;;4955862;28;20426;-89
2021/07/19 20:14:26;;;;;;;24.60;15.20;;;18.90;71.20;;;;;;4956449;28;20205;-89
2021/07/19 20:16:53;;;;;;;15.57;14.00;;;18.80;72.10;;;;;;4955954;28;20720;-90
2021/07/19 20:19:18;;;;;;;17.30;14.50;;;18.70;75.80;;;;;;4960250;28;20421;-88
2021/07/19 20:21:44;;;;;;;14.43;13.20;;;18.60;77.30;;;;;;4960984;28;20425;-89
2021/07/19 20:24:10;;;;;;;15.10;13.60;;;18.70;78.30;;;;;;4978888;28;20581;-90
2021/07/19 20:26:36;;;;;;;17.70;12.50;;;18.40;76.60;;;;;;4964290;28;20209;-90
2021/07/19 20:29:04;;;;;;;16.03;12.37;;;21.10;89.50;;;;;;4968236;28;21034;-87
2021/07/19 20:31:30;;;;;;;15.60;12.67;;;21.30;89.00;;;;;;4963775;28;20200;-89
2021/07/19 20:33:56;;;;;;;16.43;13.23;;;18.20;90.50;;;;;;4963685;28;20425;-91
2021/07/19 20:36:21;;;;;;;14.70;13.30;;;21.00;93.20;;;;;;4951890;28;20182;-88
2021/07/19 20:38:47;;;;;;;18.27;15.10;;;20.50;88.80;;;;;;4979885;28;20196;-90
2021/07/19 20:41:14;;;;;;;13.27;11.30;;;20.30;92.10;;;;;;4978696;28;20178;-91
2021/07/19 20:43:39;;;;;;;14.93;12.87;;;18.00;81.40;;;;;;4967776;28;20417;-89
2021/07/19 20:46:06;;;;;;;26.17;19.17;;;19.60;90.30;;;;;;4967367;28;20487;-90
2021/07/19 20:48:31;;;;;;;34.20;22.20;;;17.80;84.10;;;;;;4983919;28;20178;-90
2021/07/19 20:50:58;;;;;;;30.50;21.60;;;14.90;81.30;;;;;;4969205;28;20893;-90
2021/07/19 20:53:25;;;;;;;24.03;20.03;;;17.80;84.80;;;;;;4971051;28;20910;-89
2021/07/19 20:55:54;;;;;;;21.10;16.13;;;17.80;84.40;;;;;;4971479;28;20504;-89
2021/07/19 20:58:19;;;;;;;18.70;14.23;;;17.70;84.90;;;;;;4957341;28;20442;-88
2021/07/19 21:00:47;;;;;;;16.33;14.43;;;18.60;85.70;;;;;;4975279;28;20443;-90
2021/07/19 21:03:13;;;;;;;15.53;14.00;;;17.70;83.20;;;;;;4972481;28;20259;-88
2021/07/19 21:05:39;;;;;;;16.03;13.57;;;17.60;82.80;;;;;;4971570;28;20489;-88
2021/07/19 21:08:05;;;;;;;16.47;14.27;;;17.60;83.30;;;;;;4988079;28;20631;-90
2021/07/19 21:10:31;;;;;;;14.47;12.80;;;17.50;90.30;;;;;;4954476;28;20179;-89
2021/07/19 21:12:58;;;;;;;14.43;12.57;;;16.60;84.60;;;;;;4969027;28;20441;-89
2021/07/19 21:15:24;;;;;;;16.13;12.53;;;17.30;84.20;;;;;;4969155;28;20429;-90
2021/07/19 21:17:49;;;;;;;15.20;11.90;;;17.20;85.20;;;;;;4967670;28;20453;-89
2021/07/19 21:20:16;;;;;;;15.53;12.63;;;17.10;85.10;;;;;;4951783;28;20182;-89
2021/07/19 21:22:42;;;;;;;14.63;13.17;;;17.10;85.80;;;;;;4967596;28;20186;-88
2021/07/19 21:25:10;;;;;;;14.30;12.20;;;17.10;86.80;;;;;;4966096;28;20421;-90
2021/07/19 21:27:36;;;;;;;16.50;12.47;;;19.10;90.10;;;;;;4964031;28;20580;-89
2021/07/19 21:30:05;;;;;;;13.00;11.47;;;14.50;85.50;;;;;;4965257;28;20924;-89
2021/07/19 21:32:30;;;;;;;28.77;14.60;;;16.80;89.50;;;;;;4961985;28;20486;-89
2021/07/19 21:34:58;;;;;;;15.83;14.07;;;16.80;89.90;;;;;;4964426;28;20985;-88
2021/07/19 21:37:27;;;;;;;18.87;13.07;;;16.90;88.70;;;;;;4964790;28;20174;-88
2021/07/19 21:39:53;;;;;;;17.70;13.57;;;16.60;91.10;;;;;;4967542;28;20436;-90
2021/07/19 21:42:19;;;;;;;17.63;12.90;;;16.80;89.00;;;;;;4964586;28;20437;-90
2021/07/19 21:44:44;;;;;;;14.50;11.73;;;;;;;;;;4964413;28;20427;-89
2021/07/19 21:47:11;;;;;;;12.17;10.90;;;16.90;87.30;;;;;;4968266;28;20538;-90
2021/07/19 21:49:36;;;;;;;14.37;12.73;;;16.90;87.90;;;;;;4969570;28;20448;-89
2021/07/19 21:52:04;;;;;;;15.60;11.80;;;16.70;89.00;;;;;;4969789;28;20908;-88
2021/07/19 21:54:30;;;;;;;16.03;13.00;;;16.70;90.10;;;;;;4954106;28;20243;-89
2021/07/19 21:56:59;;;;;;;14.03;12.73;;;16.40;90.70;;;;;;4969079;28;20430;-90
2021/07/19 21:59:25;;;;;;;12.30;11.20;;;18.20;91.40;;;;;;4969143;28;20455;-90
2021/07/19 22:01:54;;;;;;;14.73;13.23;;;16.70;92.50;;;;;;4968410;28;20437;-89
2021/07/19 22:04:24;;;;;;;13.70;12.30;;;17.70;92.30;;;;;;4955883;28;20497;-89
2021/07/19 22:06:56;;;;;;;18.20;12.90;;;14.90;89.80;;;;;;4972806;28;20477;-89
2021/07/19 22:09:30;;;;;;;14.00;12.60;;;17.10;91.30;;;;;;4951406;29;20477;-89
2021/07/19 22:12:04;;;;;;;15.50;12.97;;;16.00;90.50;;;;;;4969613;29;20461;-89
2021/07/19 22:14:30;;;;;;;12.97;11.73;;;16.20;91.20;;;;;;4955405;29;20502;-89
2021/07/19 22:16:56;;;;;;;13.20;11.83;;;16.20;92.40;;;;;;4952245;29;20430;-88
2021/07/19 22:19:28;;;;;;;12.60;11.30;;;15.00;92.00;;;;;;4950238;29;20203;-89
2021/07/19 22:22:04;;;;;;;13.20;11.80;;;15.00;91.30;;;;;;4949394;29;20201;-89
2021/07/19 22:24:34;;;;;;;14.03;11.17;;;16.50;91.80;;;;;;4951939;29;20468;-89
2021/07/19 22:27:01;;;;;;;15.23;13.63;;;16.30;92.50;;;;;;4949192;29;20478;-90
2021/07/19 22:29:43;;;;;;;13.53;12.13;;;19.20;93.50;;;;;;4948264;29;20418;-89
2021/07/19 22:32:09;;;;;;;14.20;12.80;;;16.20;92.80;;;;;;4949440;29;20431;-89
2021/07/19 22:34:40;;;;;;;17.77;11.97;;;16.10;93.00;;;;;;4948039;29;20410;-89
2021/07/19 22:37:22;;;;;;;13.80;12.50;;;16.00;92.90;;;;;;4949006;29;20430;-89
2021/07/19 22:39:50;;;;;;;12.53;11.10;;;15.90;91.60;;;;;;4949341;28;20472;-89
2021/07/19 22:42:16;;;;;;;13.57;12.23;;;15.90;92.50;;;;;;4947878;29;20434;-88
2021/07/19 22:44:42;;;;;;;13.47;12.00;;;15.60;96.40;;;;;;4949183;28;20482;-89
2021/07/19 22:47:12;;;;;;;13.80;12.10;;;15.80;97.20;;;;;;4949508;29;20489;-88
2021/07/19 22:49:41;;;;;;;15.37;13.00;;;15.50;96.20;;;;;;4950455;29;20429;-90
2021/07/19 22:52:08;;;;;;;13.47;12.27;;;15.60;97.60;;;;;;4949269;29;20502;-89
2021/07/19 22:54:34;;;;;;;14.90;13.00;;;15.80;95.70;;;;;;4948075;29;20567;-89
2021/07/19 22:57:03;;;;;;;14.60;13.10;;;15.80;97.50;;;;;;4946984;28;20422;-88
2021/07/19 22:59:32;;;;;;;15.10;12.20;;;16.50;98.70;;;;;;4948714;29;20183;-89
2021/07/19 23:02:00;;;;;;;13.10;11.90;;;15.70;97.00;;;;;;4949525;29;20422;-89
2021/07/19 23:04:27;;;;;;;16.83;13.77;;;16.40;98.00;;;;;;4944519;29;20491;-89
2021/07/19 23:07:00;;;;;;;21.77;13.17;;;15.60;99.00;;;;;;5027081;28;20550;-89
2021/07/19 23:09:26;;;;;;;17.67;13.60;;;15.50;99.40;;;;;;4943995;29;20489;-89
2021/07/19 23:11:54;;;;;;;14.90;12.40;;;15.40;99.90;;;;;;4945272;29;20435;-88
2021/07/19 23:14:19;;;;;;;19.23;13.80;;;15.40;99.90;;;;;;4945250;29;20202;-89
2021/07/19 23:16:48;;;;;;;15.37;13.73;;;15.30;99.90;;;;;;5028449;28;20431;-89
2021/07/19 23:19:13;;;;;;;15.00;13.60;;;15.30;99.90;;;;;;4927469;28;20179;-89
2021/07/19 23:21:43;;;;;;;16.87;15.10;;;15.20;99.90;;;;;;4945245;29;21000;-89
2021/07/19 23:24:12;;;;;;;17.40;15.67;;;15.30;99.90;;;;;;4947042;29;20229;-89
2021/07/19 23:26:50;;;;;;;22.00;14.70;;;15.40;99.90;;;;;;4949168;29;20773;-89
2021/07/19 23:29:16;;;;;;;13.37;11.97;;;15.20;99.90;;;;;;4946098;29;20419;-88
2021/07/19 23:31:41;;;;;;;19.70;13.20;;;14.90;99.90;;;;;;4947027;28;20438;-89
2021/07/19 23:34:07;;;;;;;16.67;13.13;;;15.00;99.90;;;;;;4949475;29;20171;-90
2021/07/19 23:36:33;;;;;;;14.23;12.00;;;15.00;99.90;;;;;;4951743;28;20182;-89
2021/07/19 23:38:59;;;;;;;16.13;12.67;;;15.00;99.90;;;;;;4948347;29;20186;-89
2021/07/19 23:41:30;;;;;;;15.87;12.50;;;15.10;99.90;;;;;;4948439;29;20197;-89
2021/07/19 23:43:56;;;;;;;13.67;12.27;;;15.00;99.90;;;;;;4948864;29;20497;-91
2021/07/19 23:46:23;;;;;;;13.90;12.40;;;15.00;99.90;;;;;;4947946;28;20463;-89
2021/07/19 23:49:01;;;;;;;18.03;14.23;;;15.10;99.90;;;;;;4948327;29;20182;-90
2021/07/19 23:51:29;;;;;;;14.73;12.90;;;14.90;99.90;;;;;;4948372;29;20427;-90
2021/07/19 23:53:59;;;;;;;16.37;12.20;;;;;;;;;;4956595;28;20411;-89
2021/07/19 23:56:29;;;;;;;15.00;12.33;;;;;;;;;;4955871;29;20525;-90
2021/07/19 23:58:55;;;;;;;12.93;11.63;;;14.80;99.90;;;;;;4947906;29;20462;-89
